Terminal Aerodrome Forecast
Issued by NWS

Home | Current Version | Previous Version | Text Only | Print | Product List | Glossary On
Versions: 1 2 3 4 5 6 7 8 9 10 11 12 13 14 15 16 17 18 19 20 21 22 23 24 25 26
000
FTAK31 PAJN 301732
TAFASI
TAF
PASI 301732Z 3018/3118 13005KT P6SM VCSH FEW025 OVC070
     FM302300 09006KT 6SM -RA SCT015 OVC030
     FM310600 VRB05KT 4SM -RA BR FEW005 OVC015
     FM311600 26006KT P6SM VCSH SCT003 OVC010=

USA.gov is the U.S. government's official web portal to all federal, state and local government web resources and services.